Time;durP1;ratioP1;P1;durP2;ratioP2;P2;SDS_P1;SDS_P2;PMS_P1;PMS_P2;Temp;Humidity;BMP_temperature;BMP_pressure;BME280_temperature;BME280_humidity;BME280_pressure;Samples;Min_cycle;Max_cycle;Signal;HPM_P1;HPM_P2
2023/09/21 00:01:43;;;;;;;;;;;;;;;;;;5017560;28;19921;-67
2023/09/21 00:04:09;;;;;;;;;;;;;;;;;;5017243;28;19932;-66
2023/09/21 00:06:36;;;;;;;;;;;;;;;;;;5033042;28;20450;-67
2023/09/21 00:09:02;;;;;;;;;;;;;;;;;;5037112;28;19921;-66
2023/09/21 00:11:30;;;;;;;;;;;;;;;;;;5032101;28;20461;-66
2023/09/21 00:13:56;;;;;;;;;;;;;;;;;;5033181;28;19929;-67
2023/09/21 00:16:25;;;;;;;;;;;;;;;;;;5027358;28;19931;-67
2023/09/21 00:18:52;;;;;;;;;;;;;;;;;;5029802;28;19936;-66
2023/09/21 00:21:17;;;;;;;;;;;;;;;;;;5025942;28;19928;-66
2023/09/21 00:23:44;;;;;;;;;;;;;;;;;;5036405;28;19929;-66
2023/09/21 00:26:10;;;;;;;;;;;;;;;;;;5016841;28;19929;-66
2023/09/21 00:28:36;;;;;;;;;;;;;;;;;;5028395;28;20505;-66
2023/09/21 00:31:02;;;;;;;;;;;;;;;;;;5036692;28;20020;-66
2023/09/21 00:33:28;;;;;;;;;;;;;;;;;;5031781;28;19921;-66
2023/09/21 00:35:54;;;;;;;;;;;;;;;;;;5044760;28;19970;-67
2023/09/21 00:38:20;;;;;;;;;;;;;;;;;;5031321;28;20356;-66
2023/09/21 00:40:47;;;;;;;;;;;;;;;;;;5028979;28;19921;-66
2023/09/21 00:43:13;;;;;;;;;;;;;;;;;;5029930;28;19933;-67
2023/09/21 00:45:40;;;;;;;;;;;;;;;;;;5033424;28;19931;-66
2023/09/21 00:48:09;;;;;;;;;;;;;;;;;;5029528;28;19928;-66
2023/09/21 00:50:35;;;;;;;;;;;;;;;;;;5033293;28;20032;-66
2023/09/21 00:53:01;;;;;;;;;;;;;;;;;;5041676;22;19906;-64
2023/09/21 00:55:39;;;;;;;;;;;;;;;;;;5027038;28;19926;-64
2023/09/21 00:58:05;;;;;;;;;;;;;;;;;;5033729;28;19921;-64
2023/09/21 01:00:31;;;;;;;;;;;;;;;;;;5031515;28;19979;-64
2023/09/21 01:03:07;;;;;;;;;;;;;;;;;;5034524;28;20275;-64
2023/09/21 01:05:34;;;;;;;;;;;;;;;;;;5043642;28;19937;-64
2023/09/21 01:08:05;;;;;;;;;;;;;;;;;;5028363;28;19925;-64
2023/09/21 01:10:30;;;;;;;;;;;;;;;;;;5029812;28;19929;-65
2023/09/21 01:12:57;;;;;;;;;;;;;;;;;;5032186;28;19921;-65
2023/09/21 01:15:23;;;;;;;;;;;;;;;;;;5035968;28;19925;-65
2023/09/21 01:17:49;;;;;;;;;;;;;;;;;;5028581;28;20279;-65
2023/09/21 01:20:18;;;;;;;;;;;;;;;;;;5033308;28;19921;-64
2023/09/21 01:22:44;;;;;;;;;;;;;;;;;;5031683;28;19932;-64
2023/09/21 01:25:11;;;;;;;;;;;;;;;;;;5029088;28;20447;-64
2023/09/21 01:27:38;;;;;;;;;;;;;;;;;;5043296;28;19969;-64
2023/09/21 01:30:04;;;;;;;;;;;;;;;;;;5026777;28;20642;-64
2023/09/21 01:32:30;;;;;;;;;;;;;;;;;;5034168;28;19940;-64
2023/09/21 01:34:56;;;;;;;;;;;;;;;;;;5032058;28;19953;-64
2023/09/21 01:37:22;;;;;;;;;;;;;;;;;;5033471;28;19929;-64
2023/09/21 01:39:48;;;;;;;;;;;;;;;;;;5022307;28;19922;-64
2023/09/21 01:42:15;;;;;;;;;;;;;;;;;;5040738;28;20390;-65
2023/09/21 01:44:41;;;;;;;;;;;;;;;;;;5021041;28;19921;-65
2023/09/21 01:47:09;;;;;;;;;;;;;;;;;;5028151;28;19932;-65
2023/09/21 01:49:35;;;;;;;;;;;;;;;;;;5031119;28;20279;-64
2023/09/21 01:52:01;;;;;;;;;;;;;;;;;;5032130;28;19922;-64
2023/09/21 01:54:27;;;;;;;;;;;;;;;;;;5028250;28;20394;-64
2023/09/21 01:56:54;;;;;;;;;;;;;;;;;;5030643;28;19925;-64
2023/09/21 01:59:20;;;;;;;;;;;;;;;;;;5026230;28;19929;-64
2023/09/21 02:01:48;;;;;;;;;;;;;;;;;;5030735;28;19921;-64
2023/09/21 02:04:14;;;;;;;;;;;;;;;;;;5030403;28;20474;-64
2023/09/21 02:06:40;;;;;;;;;;;;;;;;;;5030244;28;19987;-64
2023/09/21 02:09:09;;;;;;;;;;;;;;;;;;5031861;28;21034;-64
2023/09/21 02:11:35;;;;;;;;;;;;;;;;;;5024299;28;20370;-65
2023/09/21 02:14:01;;;;;;;;;;;;;;;;;;5032235;28;19921;-65
2023/09/21 02:16:26;;;;;;;;;;;;;;;;;;5029970;28;19924;-65
2023/09/21 02:18:52;;;;;;;;;;;;;;;;;;5043365;28;19929;-64
2023/09/21 02:21:19;;;;;;;;;;;;;;;;;;5028474;28;19925;-64
2023/09/21 02:23:45;;;;;;;;;;;;;;;;;;5025590;28;19922;-64
2023/09/21 02:26:11;;;;;;;;;;;;;;;;;;5031000;28;19936;-64
2023/09/21 02:28:37;;;;;;;;;;;;;;;;;;5024040;28;19931;-64
2023/09/21 02:31:06;;;;;;;;;;;;;;;;;;5031490;28;19921;-64
2023/09/21 02:33:33;;;;;;;;;;;;;;;;;;5027807;28;19932;-64
2023/09/21 02:35:59;;;;;;;;;;;;;;;;;;5034457;28;20018;-64
2023/09/21 02:38:26;;;;;;;;;;;;;;;;;;5042497;28;20414;-64
2023/09/21 02:40:52;;;;;;;;;;;;;;;;;;5046087;28;20016;-64
2023/09/21 02:43:19;;;;;;;;;;;;;;;;;;5030628;28;19928;-64
2023/09/21 02:45:44;;;;;;;;;;;;;;;;;;5022020;28;20762;-65
2023/09/21 02:48:10;;;;;;;;;;;;;;;;;;5032821;28;20027;-65
2023/09/21 02:50:36;;;;;;;;;;;;;;;;;;5024941;28;20059;-65
2023/09/21 02:53:05;;;;;;;;;;;;;;;;;;5027760;28;19929;-64
2023/09/21 02:55:33;;;;;;;;;;;;;;;;;;5028890;28;20016;-64
2023/09/21 02:57:59;;;;;;;;;;;;;;;;;;5030914;28;19929;-65
2023/09/21 03:00:34;;;;;;;;;;;;;;;;;;5029497;28;19945;-64
2023/09/21 03:03:00;;;;;;;;;;;;;;;;;;5029803;28;19921;-64
2023/09/21 03:05:27;;;;;;;;;;;;;;;;;;5031100;28;20406;-64
2023/09/21 03:07:54;;;;;;;;;;;;;;;;;;5026823;28;19928;-64
2023/09/21 03:10:20;;;;;;;;;;;;;;;;;;5032235;28;19921;-65
2023/09/21 03:12:48;;;;;;;;;;;;;;;;;;5028776;28;19932;-65
2023/09/21 03:15:15;;;;;;;;;;;;;;;;;;5030562;28;19929;-64
2023/09/21 03:17:40;;;;;;;;;;;;;;;;;;5023782;28;20039;-64
2023/09/21 03:20:09;;;;;;;;;;;;;;;;;;5028398;28;19964;-64
2023/09/21 03:22:35;;;;;;;;;;;;;;;;;;5029583;28;19922;-64
2023/09/21 03:25:02;;;;;;;;;;;;;;;;;;5032444;28;19929;-64
2023/09/21 03:27:28;;;;;;;;;;;;;;;;;;5027219;28;19961;-64
2023/09/21 03:29:54;;;;;;;;;;;;;;;;;;5025665;28;19968;-65
2023/09/21 03:32:20;;;;;;;;;;;;;;;;;;5027812;28;20311;-64
2023/09/21 03:34:46;;;;;;;;;;;;;;;;;;5029204;28;20015;-64
2023/09/21 03:37:13;;;;;;;;;;;;;;;;;;5030733;28;20008;-64
2023/09/21 03:39:39;;;;;;;;;;;;;;;;;;5030584;28;19925;-64
2023/09/21 03:42:05;;;;;;;;;;;;;;;;;;5028553;28;19921;-64
2023/09/21 03:44:31;;;;;;;;;;;;;;;;;;5024450;28;19987;-64
2023/09/21 03:46:57;;;;;;;;;;;;;;;;;;5029161;28;20264;-64
2023/09/21 03:49:23;;;;;;;;;;;;;;;;;;5023665;28;19978;-64
2023/09/21 03:51:49;;;;;;;;;;;;;;;;;;5030480;28;19925;-65
2023/09/21 03:54:16;;;;;;;;;;;;;;;;;;5031721;28;19948;-64
2023/09/21 03:56:42;;;;;;;;;;;;;;;;;;5044499;28;19976;-64
2023/09/21 03:59:08;;;;;;;;;;;;;;;;;;5028175;28;20383;-64
2023/09/21 04:01:37;;;;;;;;;;;;;;;;;;5030449;28;19921;-64
2023/09/21 04:04:17;;;;;;;;;;;;;;;;;;5031728;28;20020;-64
2023/09/21 04:06:43;;;;;;;;;;;;;;;;;;5030456;28;19925;-64
2023/09/21 04:09:09;;;;;;;;;;;;;;;;;;5031540;28;19971;-65
2023/09/21 04:11:35;;;;;;;;;;;;;;;;;;5027631;28;20394;-65
2023/09/21 04:14:03;;;;;;;;;;;;;;;;;;5030855;28;19921;-65
2023/09/21 04:16:29;;;;;;;;;;;;;;;;;;5027869;28;19925;-65
2023/09/21 04:18:55;;;;;;;;;;;;;;;;;;5025243;28;19929;-64
2023/09/21 04:21:23;;;;;;;;;;;;;;;;;;5030369;28;19929;-65
2023/09/21 04:23:49;;;;;;;;;;;;;;;;;;5035422;28;19989;-65
2023/09/21 04:26:15;;;;;;;;;;;;;;;;;;5051623;28;19969;-65
2023/09/21 04:28:41;;;;;;;;;;;;;;;;;;5029129;28;20425;-64
2023/09/21 04:31:09;;;;;;;;;;;;;;;;;;5034812;28;19921;-64
2023/09/21 04:33:35;;;;;;;;;;;;;;;;;;5028786;28;19929;-64
2023/09/21 04:36:01;;;;;;;;;;;;;;;;;;5032990;28;20291;-64
2023/09/21 04:38:27;;;;;;;;;;;;;;;;;;5031474;28;19925;-64
2023/09/21 04:40:52;;;;;;;;;;;;;;;;;;5032751;28;19928;-65
2023/09/21 04:43:20;;;;;;;;;;;;;;;;;;5043479;28;19924;-65
2023/09/21 04:45:46;;;;;;;;;;;;;;;;;;5029320;28;20355;-65
2023/09/21 04:48:11;;;;;;;;;;;;;;;;;;5034564;28;19932;-65
2023/09/21 04:50:37;;;;;;;;;;;;;;;;;;5026650;28;19935;-64
2023/09/21 04:53:03;;;;;;;;;;;;;;;;;;5030586;28;19931;-65
2023/09/21 04:55:31;;;;;;;;;;;;;;;;;;5033062;28;20359;-65
2023/09/21 04:57:57;;;;;;;;;;;;;;;;;;5029953;28;19926;-64
2023/09/21 05:00:23;;;;;;;;;;;;;;;;;;5028239;28;19976;-65
2023/09/21 05:02:49;;;;;;;;;;;;;;;;;;5025382;28;19925;-65
2023/09/21 05:05:17;;;;;;;;;;;;;;;;;;5027783;28;20625;-65
2023/09/21 05:07:43;;;;;;;;;;;;;;;;;;5027887;28;19929;-65
2023/09/21 05:10:12;;;;;;;;;;;;;;;;;;5023106;28;20004;-63
2023/09/21 05:12:37;;;;;;;;;;;;;;;;;;5030997;28;19932;-64
2023/09/21 05:15:06;;;;;;;;;;;;;;;;;;5022441;28;20003;-64
2023/09/21 05:17:32;;;;;;;;;;;;;;;;;;5031207;28;19964;-64
2023/09/21 05:19:58;;;;;;;;;;;;;;;;;;5029302;28;20622;-65
2023/09/21 05:22:24;;;;;;;;;;;;;;;;;;5028957;28;19932;-65
2023/09/21 05:24:50;;;;;;;;;;;;;;;;;;5029222;28;19921;-65
2023/09/21 05:27:17;;;;;;;;;;;;;;;;;;5032805;28;19933;-65
2023/09/21 05:29:43;;;;;;;;;;;;;;;;;;5033008;28;19932;-65
2023/09/21 05:32:09;;;;;;;;;;;;;;;;;;5039590;28;19921;-65
2023/09/21 05:34:36;;;;;;;;;;;;;;;;;;5031228;28;20382;-65
2023/09/21 05:37:02;;;;;;;;;;;;;;;;;;5027236;28;19925;-65
2023/09/21 05:39:28;;;;;;;;;;;;;;;;;;5025065;28;20007;-65
2023/09/21 05:41:54;;;;;;;;;;;;;;;;;;5023110;28;19964;-65
2023/09/21 05:44:25;;;;;;;;;;;;;;;;;;5025778;28;19979;-65
2023/09/21 05:46:51;;;;;;;;;;;;;;;;;;5029153;28;19929;-65
2023/09/21 05:49:23;;;;;;;;;;;;;;;;;;5027622;28;19944;-65
2023/09/21 05:51:49;;;;;;;;;;;;;;;;;;5027516;28;20280;-65
2023/09/21 05:54:15;;;;;;;;;;;;;;;;;;5032457;28;19922;-65
2023/09/21 05:56:41;;;;;;;;;;;;;;;;;;5024895;28;19987;-65
2023/09/21 05:59:07;;;;;;;;;;;;;;;;;;5039747;28;19922;-65
2023/09/21 06:01:33;;;;;;;;;;;;;;;;;;5025447;28;19991;-65
2023/09/21 06:04:02;;;;;;;;;;;;;;;;;;5022264;28;19980;-65
2023/09/21 06:06:33;;;;;;;;;;;;;;;;;;5022654;28;19925;-65
2023/09/21 06:08:59;;;;;;;;;;;;;;;;;;5026869;28;19979;-65
2023/09/21 06:11:26;;;;;;;;;;;;;;;;;;5022768;28;19929;-65
2023/09/21 06:13:53;;;;;;;;;;;;;;;;;;5025863;28;19983;-65
2023/09/21 06:16:19;;;;;;;;;;;;;;;;;;5028554;28;20367;-65
2023/09/21 06:18:48;;;;;;;;;;;;;;;;;;5025827;28;19925;-65
2023/09/21 06:21:14;;;;;;;;;;;;;;;;;;5029339;28;19964;-65
2023/09/21 06:23:42;;;;;;;;;;;;;;;;;;5026997;28;20376;-65
2023/09/21 06:26:08;;;;;;;;;;;;;;;;;;5017893;28;19925;-65
2023/09/21 06:28:34;;;;;;;;;;;;;;;;;;5027405;28;19921;-65
2023/09/21 06:31:00;;;;;;;;;;;;;;;;;;5029108;28;20710;-65
2023/09/21 06:33:26;;;;;;;;;;;;;;;;;;5031530;28;19921;-63
2023/09/21 06:35:52;;;;;;;;;;;;;;;;;;5028682;28;19925;-63
2023/09/21 06:38:20;;;;;;;;;;;;;;;;;;5046740;28;19925;-64
2023/09/21 06:40:46;;;;;;;;;;;;;;;;;;5045409;28;19928;-64
2023/09/21 06:43:12;;;;;;;;;;;;;;;;;;5046469;28;20007;-64
2023/09/21 06:45:38;;;;;;;;;;;;;;;;;;5038648;28;19960;-64
2023/09/21 06:48:05;;;;;;;;;;;;;;;;;;5027212;28;19921;-64
2023/09/21 06:50:32;;;;;;;;;;;;;;;;;;5029251;28;20351;-64
2023/09/21 06:52:58;;;;;;;;;;;;;;;;;;5046833;28;19932;-64
2023/09/21 06:55:25;;;;;;;;;;;;;;;;;;5030397;28;19925;-63
2023/09/21 06:57:51;;;;;;;;;;;;;;;;;;5031779;28;19921;-63
2023/09/21 07:00:17;;;;;;;;;;;;;;;;;;5031006;28;20455;-63
2023/09/21 07:02:44;;;;;;;;;;;;;;;;;;5034002;28;19921;-63
2023/09/21 07:05:12;;;;;;;;;;;;;;;;;;5030575;28;20298;-63
2023/09/21 07:07:38;;;;;;;;;;;;;;;;;;5031809;28;20298;-63
2023/09/21 07:10:05;;;;;;;;;;;;;;;;;;5033268;28;20405;-63
2023/09/21 07:12:31;;;;;;;;;;;;;;;;;;5033510;28;19925;-63
2023/09/21 07:14:58;;;;;;;;;;;;;;;;;;5029057;28;20299;-63
2023/09/21 07:17:24;;;;;;;;;;;;;;;;;;5031918;28;19945;-63
2023/09/21 07:19:50;;;;;;;;;;;;;;;;;;5033200;28;19921;-64
2023/09/21 07:22:16;;;;;;;;;;;;;;;;;;5046652;28;19927;-64
2023/09/21 07:24:42;;;;;;;;;;;;;;;;;;5030689;28;19925;-63
2023/09/21 07:27:08;;;;;;;;;;;;;;;;;;5033126;28;19936;-63
2023/09/21 07:29:35;;;;;;;;;;;;;;;;;;5026877;28;20027;-63
2023/09/21 07:32:01;;;;;;;;;;;;;;;;;;5031632;28;19979;-63
2023/09/21 07:34:27;;;;;;;;;;;;;;;;;;5023718;28;20382;-64
2023/09/21 07:36:53;;;;;;;;;;;;;;;;;;5025021;28;19928;-63
2023/09/21 07:39:19;;;;;;;;;;;;;;;;;;5027785;28;19921;-63
2023/09/21 07:41:46;;;;;;;;;;;;;;;;;;5021674;28;19921;-63
2023/09/21 07:44:13;;;;;;;;;;;;;;;;;;5025818;28;20267;-63
2023/09/21 07:46:39;;;;;;;;;;;;;;;;;;5025608;28;19929;-63
2023/09/21 07:49:05;;;;;;;;;;;;;;;;;;5026359;28;19999;-63
2023/09/21 07:51:31;;;;;;;;;;;;;;;;;;5022858;28;19927;-63
2023/09/21 07:53:57;;;;;;;;;;;;;;;;;;5029177;28;19964;-64
2023/09/21 07:56:23;;;;;;;;;;;;;;;;;;5036374;28;19972;-63
2023/09/21 07:58:49;;;;;;;;;;;;;;;;;;5026874;28;19936;-63
2023/09/21 08:01:15;;;;;;;;;;;;;;;;;;5024842;28;19921;-64
2023/09/21 08:03:41;;;;;;;;;;;;;;;;;;5022430;28;19932;-64
2023/09/21 08:06:07;;;;;;;;;;;;;;;;;;5017203;28;19932;-63
2023/09/21 08:08:33;;;;;;;;;;;;;;;;;;5034427;28;19921;-64
2023/09/21 08:10:59;;;;;;;;;;;;;;;;;;5035333;28;20379;-64
2023/09/21 08:13:25;;;;;;;;;;;;;;;;;;5027357;28;19963;-63
2023/09/21 08:15:52;;;;;;;;;;;;;;;;;;5024244;28;20266;-63
2023/09/21 08:18:18;;;;;;;;;;;;;;;;;;5032441;28;19979;-63
2023/09/21 08:20:44;;;;;;;;;;;;;;;;;;5030980;28;19921;-63
2023/09/21 08:23:10;;;;;;;;;;;;;;;;;;5021528;28;19936;-63
2023/09/21 08:25:37;;;;;;;;;;;;;;;;;;5028798;28;19933;-64
2023/09/21 08:28:07;;;;;;;;;;;;;;;;;;5031268;28;20008;-63
2023/09/21 08:30:33;;;;;;;;;;;;;;;;;;5023235;28;20651;-63
2023/09/21 08:32:59;;;;;;;;;;;;;;;;;;5037682;28;19922;-63
2023/09/21 08:35:25;;;;;;;;;;;;;;;;;;5028320;28;19921;-64
2023/09/21 08:37:51;;;;;;;;;;;;;;;;;;5027332;28;20559;-64
2023/09/21 08:40:16;;;;;;;;;;;;;;;;;;5032287;28;20008;-64
2023/09/21 08:42:42;;;;;;;;;;;;;;;;;;5031609;28;19935;-64
2023/09/21 08:45:09;;;;;;;;;;;;;;;;;;5031608;28;19921;-64
2023/09/21 08:47:35;;;;;;;;;;;;;;;;;;5025684;28;19929;-64
2023/09/21 08:50:01;;;;;;;;;;;;;;;;;;5027299;28;19928;-63
2023/09/21 08:52:27;;;;;;;;;;;;;;;;;;5032662;28;20378;-63
2023/09/21 08:54:53;;;;;;;;;;;;;;;;;;5024652;28;19932;-64
2023/09/21 08:57:19;;;;;;;;;;;;;;;;;;5033943;28;19925;-64
2023/09/21 08:59:45;;;;;;;;;;;;;;;;;;5033194;28;19921;-64
2023/09/21 09:02:11;;;;;;;;;;;;;;;;;;5031830;28;20042;-63
2023/09/21 09:04:37;;;;;;;;;;;;;;;;;;5032091;28;19925;-63
2023/09/21 09:07:03;;;;;;;;;;;;;;;;;;5019554;28;19926;-64
2023/09/21 09:09:29;;;;;;;;;;;;;;;;;;5033215;28;20322;-63
2023/09/21 09:11:55;;;;;;;;;;;;;;;;;;5033422;28;20011;-63
2023/09/21 09:14:20;;;;;;;;;;;;;;;;;;5033722;28;19947;-63
2023/09/21 09:16:46;;;;;;;;;;;;;;;;;;5027077;28;19921;-63
2023/09/21 09:19:12;;;;;;;;;;;;;;;;;;5031019;28;19929;-64
2023/09/21 09:21:39;;;;;;;;;;;;;;;;;;5031926;28;20039;-63
2023/09/21 09:24:06;;;;;;;;;;;;;;;;;;5031570;28;19921;-63
2023/09/21 09:26:32;;;;;;;;;;;;;;;;;;5030761;28;20019;-64
2023/09/21 09:28:58;;;;;;;;;;;;;;;;;;5030568;28;19931;-63
2023/09/21 09:31:24;;;;;;;;;;;;;;;;;;5032225;28;19920;-64
2023/09/21 09:33:50;;;;;;;;;;;;;;;;;;5020766;28;19921;-63
2023/09/21 09:36:16;;;;;;;;;;;;;;;;;;5032209;28;20385;-63
2023/09/21 09:38:42;;;;;;;;;;;;;;;;;;5031961;28;19925;-64
2023/09/21 09:41:11;;;;;;;;;;;;;;;;;;5027789;28;19929;-64
2023/09/21 09:43:37;;;;;;;;;;;;;;;;;;5032039;28;19921;-64
2023/09/21 09:46:03;;;;;;;;;;;;;;;;;;5031700;28;19951;-64
2023/09/21 09:48:32;;;;;;;;;;;;;;;;;;5023319;28;19929;-63
2023/09/21 09:50:58;;;;;;;;;;;;;;;;;;5033112;28;19921;-64
2023/09/21 09:53:25;;;;;;;;;;;;;;;;;;5027043;28;19925;-64
2023/09/21 09:55:53;;;;;;;;;;;;;;;;;;5030835;28;19967;-64
2023/09/21 09:58:19;;;;;;;;;;;;;;;;;;5030101;28;19921;-64
2023/09/21 10:00:45;;;;;;;;;;;;;;;;;;5022031;28;19922;-63
2023/09/21 10:03:11;;;;;;;;;;;;;;;;;;5024436;28;19983;-64
2023/09/21 10:05:37;;;;;;;;;;;;;;;;;;5030921;28;19925;-63
2023/09/21 10:08:06;;;;;;;;;;;;;;;;;;5030271;28;19928;-64
2023/09/21 10:10:32;;;;;;;;;;;;;;;;;;5031642;28;20003;-64
2023/09/21 10:12:58;;;;;;;;;;;;;;;;;;5025015;28;20329;-64
2023/09/21 10:15:23;;;;;;;;;;;;;;;;;;5029826;28;19979;-64
2023/09/21 10:17:50;;;;;;;;;;;;;;;;;;5032773;28;19921;-64
2023/09/21 10:20:18;;;;;;;;;;;;;;;;;;5028283;28;19929;-64
2023/09/21 10:22:44;;;;;;;;;;;;;;;;;;5028655;28;19972;-64
2023/09/21 10:25:10;;;;;;;;;;;;;;;;;;5030722;28;19975;-64
2023/09/21 10:27:36;;;;;;;;;;;;;;;;;;5024842;28;19940;-63
2023/09/21 10:30:06;;;;;;;;;;;;;;;;;;5025293;28;19929;-63
2023/09/21 10:32:32;;;;;;;;;;;;;;;;;;5021876;28;19932;-63
2023/09/21 10:34:59;;;;;;;;;;;;;;;;;;5024051;28;19925;-63
2023/09/21 10:37:26;;;;;;;;;;;;;;;;;;5030330;28;19960;-64
2023/09/21 10:39:52;;;;;;;;;;;;;;;;;;5026913;28;19933;-64
2023/09/21 10:42:18;;;;;;;;;;;;;;;;;;5022701;28;19975;-63
2023/09/21 10:44:44;;;;;;;;;;;;;;;;;;5029722;28;19921;-63
2023/09/21 10:47:10;;;;;;;;;;;;;;;;;;5022807;28;20016;-64
2023/09/21 10:49:35;;;;;;;;;;;;;;;;;;5029167;28;20303;-64
2023/09/21 10:52:02;;;;;;;;;;;;;;;;;;5045909;28;19956;-64
2023/09/21 10:54:28;;;;;;;;;;;;;;;;;;5021178;28;19925;-64
2023/09/21 10:56:54;;;;;;;;;;;;;;;;;;5023209;28;20382;-64
2023/09/21 10:59:20;;;;;;;;;;;;;;;;;;5022192;28;19921;-64
2023/09/21 11:01:46;;;;;;;;;;;;;;;;;;5027994;28;19921;-64
2023/09/21 11:04:14;;;;;;;;;;;;;;;;;;5027380;28;22365;-64
2023/09/21 11:06:40;;;;;;;;;;;;;;;;;;5024250;28;20078;-63
2023/09/21 11:09:07;;;;;;;;;;;;;;;;;;5026299;28;19959;-64
2023/09/21 11:11:34;;;;;;;;;;;;;;;;;;5028705;28;20012;-64
2023/09/21 11:14:03;;;;;;;;;;;;;;;;;;5031153;28;20400;-64
2023/09/21 11:16:29;;;;;;;;;;;;;;;;;;5026800;28;20008;-63
2023/09/21 11:18:55;;;;;;;;;;;;;;;;;;5026448;28;20011;-63
2023/09/21 11:21:22;;;;;;;;;;;;;;;;;;5027767;28;20004;-64
2023/09/21 11:23:49;;;;;;;;;;;;;;;;;;5029661;28;19955;-64
2023/09/21 11:26:15;;;;;;;;;;;;;;;;;;5030237;28;20032;-64
2023/09/21 11:28:42;;;;;;;;;;;;;;;;;;5039432;28;19932;-64
2023/09/21 11:31:08;;;;;;;;;;;;;;;;;;5029586;28;19929;-64
2023/09/21 11:33:34;;;;;;;;;;;;;;;;;;5026566;28;20032;-64
2023/09/21 11:36:00;;;;;;;;;;;;;;;;;;5027603;28;20016;-64
2023/09/21 11:38:29;;;;;;;;;;;;;;;;;;5020460;28;19926;-64
2023/09/21 11:40:55;;;;;;;;;;;;;;;;;;5025157;28;19925;-64
2023/09/21 11:43:22;;;;;;;;;;;;;;;;;;5023260;28;19921;-64
2023/09/21 11:45:47;;;;;;;;;;;;;;;;;;5021648;28;19971;-64
2023/09/21 11:48:13;;;;;;;;;;;;;;;;;;5018021;28;20275;-64
2023/09/21 11:50:41;;;;;;;;;;;;;;;;;;5026475;28;19951;-64
2023/09/21 11:53:07;;;;;;;;;;;;;;;;;;5039759;28;20383;-64
2023/09/21 11:55:33;;;;;;;;;;;;;;;;;;5017172;28;19921;-64
2023/09/21 11:58:00;;;;;;;;;;;;;;;;;;5026462;28;19929;-64
2023/09/21 12:00:27;;;;;;;;;;;;;;;;;;5005621;28;20263;-64
2023/09/21 12:02:53;;;;;;;;;;;;;;;;;;5026519;28;19979;-64
2023/09/21 12:05:20;;;;;;;;;;;;;;;;;;5038561;28;19956;-64
2023/09/21 12:07:46;;;;;;;;;;;;;;;;;;5026890;28;19925;-64
2023/09/21 12:10:13;;;;;;;;;;;;;;;;;;5044335;28;19932;-64
2023/09/21 12:12:40;;;;;;;;;;;;;;;;;;5027615;28;19948;-64
2023/09/21 12:15:06;;;;;;;;;;;;;;;;;;5027459;28;20479;-64
2023/09/21 12:17:32;;;;;;;;;;;;;;;;;;5030493;28;19929;-64
2023/09/21 12:19:59;;;;;;;;;;;;;;;;;;5030684;28;20406;-63
2023/09/21 12:22:26;;;;;;;;;;;;;;;;;;5034505;28;19921;-63
2023/09/21 12:24:54;;;;;;;;;;;;;;;;;;5032361;28;20414;-64
2023/09/21 12:27:20;;;;;;;;;;;;;;;;;;5034360;28;20016;-64
2023/09/21 12:29:46;;;;;;;;;;;;;;;;;;5025938;28;20052;-64
2023/09/21 12:32:12;;;;;;;;;;;;;;;;;;5031046;28;19928;-64
2023/09/21 12:34:39;;;;;;;;;;;;;;;;;;5038862;28;19926;-64
2023/09/21 12:37:05;;;;;;;;;;;;;;;;;;5026155;28;19922;-64
2023/09/21 12:39:31;;;;;;;;;;;;;;;;;;5022907;28;19963;-63
2023/09/21 12:41:56;;;;;;;;;;;;;;;;;;5032728;28;20358;-63
2023/09/21 12:44:22;;;;;;;;;;;;;;;;;;5030264;28;19926;-63
2023/09/21 12:46:48;;;;;;;;;;;;;;;;;;5023084;28;19935;-63
2023/09/21 12:49:14;;;;;;;;;;;;;;;;;;5033780;28;19921;-63
2023/09/21 12:51:43;;;;;;;;;;;;;;;;;;5029459;28;20287;-63
2023/09/21 12:54:10;;;;;;;;;;;;;;;;;;5028301;28;19933;-63
2023/09/21 12:56:36;;;;;;;;;;;;;;;;;;5032782;28;19925;-63
2023/09/21 12:59:02;;;;;;;;;;;;;;;;;;5026028;28;20380;-63
2023/09/21 13:01:28;;;;;;;;;;;;;;;;;;5045921;28;19921;-63
2023/09/21 13:03:54;;;;;;;;;;;;;;;;;;5030906;28;19929;-63
2023/09/21 13:06:20;;;;;;;;;;;;;;;;;;5028289;28;19972;-63
2023/09/21 13:08:46;;;;;;;;;;;;;;;;;;5043758;22;19929;-63
2023/09/21 13:11:12;;;;;;;;;;;;;;;;;;5050497;28;19924;-63
2023/09/21 13:13:38;;;;;;;;;;;;;;;;;;5051028;28;19929;-63
2023/09/21 13:16:08;;;;;;;;;;;;;;;;;;5047877;28;19925;-63
2023/09/21 13:18:35;;;;;;;;;;;;;;;;;;5048279;28;19970;-63
2023/09/21 13:21:01;;;;;;;;;;;;;;;;;;5050988;28;20428;-63
2023/09/21 13:23:27;;;;;;;;;;;;;;;;;;5052268;28;19967;-63
2023/09/21 13:25:53;;;;;;;;;;;;;;;;;;5038843;28;19975;-63
2023/09/21 13:28:23;;;;;;;;;;;;;;;;;;5042229;28;19943;-63
2023/09/21 13:30:49;;;;;;;;;;;;;;;;;;5048344;28;19974;-63
2023/09/21 13:33:14;;;;;;;;;;;;;;;;;;5047450;28;19929;-63
2023/09/21 13:35:40;;;;;;;;;;;;;;;;;;5058128;28;20250;-63
2023/09/21 13:38:06;;;;;;;;;;;;;;;;;;5053439;28;19971;-63
2023/09/21 13:40:32;;;;;;;;;;;;;;;;;;5055724;28;19947;-63
2023/09/21 13:42:58;;;;;;;;;;;;;;;;;;5047422;28;20496;-63
2023/09/21 13:45:24;;;;;;;;;;;;;;;;;;5054615;28;20392;-64
2023/09/21 13:47:50;;;;;;;;;;;;;;;;;;5051747;28;19925;-63
2023/09/21 13:50:18;;;;;;;;;;;;;;;;;;5049363;28;19999;-64
2023/09/21 13:52:43;;;;;;;;;;;;;;;;;;5044462;28;19963;-63
2023/09/21 13:55:10;;;;;;;;;;;;;;;;;;5041931;28;19952;-64
2023/09/21 13:57:36;;;;;;;;;;;;;;;;;;5048702;28;19924;-63
2023/09/21 14:00:02;;;;;;;;;;;;;;;;;;5048568;28;19973;-63
2023/09/21 14:02:28;;;;;;;;;;;;;;;;;;5048169;28;20008;-64
2023/09/21 14:04:54;;;;;;;;;;;;;;;;;;5048336;28;19936;-63
2023/09/21 14:07:21;;;;;;;;;;;;;;;;;;5051050;28;19925;-63
2023/09/21 14:09:47;;;;;;;;;;;;;;;;;;5047594;28;19935;-63
2023/09/21 14:12:13;;;;;;;;;;;;;;;;;;5048339;28;19944;-63
2023/09/21 14:14:39;;;;;;;;;;;;;;;;;;5047283;28;19921;-63
2023/09/21 14:17:05;;;;;;;;;;;;;;;;;;5047909;28;19966;-63
2023/09/21 14:19:31;;;;;;;;;;;;;;;;;;5050451;28;20342;-64
2023/09/21 14:21:57;;;;;;;;;;;;;;;;;;5045240;28;19920;-63
2023/09/21 14:24:22;;;;;;;;;;;;;;;;;;5048957;28;19925;-63
2023/09/21 14:26:49;;;;;;;;;;;;;;;;;;5048845;28;20007;-63
2023/09/21 14:29:15;;;;;;;;;;;;;;;;;;5044587;28;19928;-63
2023/09/21 14:31:42;;;;;;;;;;;;;;;;;;5044347;28;19921;-63
2023/09/21 14:34:08;;;;;;;;;;;;;;;;;;5045510;28;19952;-63
2023/09/21 14:36:34;;;;;;;;;;;;;;;;;;5049668;28;20376;-63
2023/09/21 14:39:00;;;;;;;;;;;;;;;;;;5047547;28;19967;-63
2023/09/21 14:41:26;;;;;;;;;;;;;;;;;;5043590;28;19972;-63
2023/09/21 14:43:52;;;;;;;;;;;;;;;;;;5031306;28;19927;-63
2023/09/21 14:46:18;;;;;;;;;;;;;;;;;;5047181;28;20382;-63
2023/09/21 14:48:44;;;;;;;;;;;;;;;;;;5043657;28;19982;-62
2023/09/21 14:51:10;;;;;;;;;;;;;;;;;;5047820;28;19978;-63
2023/09/21 14:53:36;;;;;;;;;;;;;;;;;;5044667;28;20374;-63
2023/09/21 14:56:03;;;;;;;;;;;;;;;;;;5046389;28;19967;-63
2023/09/21 14:58:29;;;;;;;;;;;;;;;;;;5051055;28;20485;-63
2023/09/21 15:00:55;;;;;;;;;;;;;;;;;;5048645;28;19928;-63
2023/09/21 15:03:21;;;;;;;;;;;;;;;;;;5030255;28;19959;-63
2023/09/21 15:05:50;;;;;;;;;;;;;;;;;;5051583;28;19928;-63
2023/09/21 15:08:17;;;;;;;;;;;;;;;;;;5043842;28;20013;-63
2023/09/21 15:10:43;;;;;;;;;;;;;;;;;;5042428;28;19929;-63
2023/09/21 15:13:09;;;;;;;;;;;;;;;;;;5048393;28;20012;-62
2023/09/21 15:15:35;;;;;;;;;;;;;;;;;;5048632;28;19982;-63
2023/09/21 15:18:01;;;;;;;;;;;;;;;;;;5046960;28;19921;-62
2023/09/21 15:20:27;;;;;;;;;;;;;;;;;;5050208;28;20381;-62
2023/09/21 15:22:53;;;;;;;;;;;;;;;;;;5046857;28;20019;-62
2023/09/21 15:25:19;;;;;;;;;;;;;;;;;;5048124;28;20024;-63
2023/09/21 15:27:46;;;;;;;;;;;;;;;;;;5043667;28;19933;-63
2023/09/21 15:30:12;;;;;;;;;;;;;;;;;;5049479;28;19921;-63
2023/09/21 15:32:38;;;;;;;;;;;;;;;;;;5040172;28;20310;-63
2023/09/21 15:35:03;;;;;;;;;;;;;;;;;;5043628;28;19932;-63
2023/09/21 15:37:31;;;;;;;;;;;;;;;;;;5046616;28;20267;-63
2023/09/21 15:39:57;;;;;;;;;;;;;;;;;;5050171;28;19921;-63
2023/09/21 15:42:22;;;;;;;;;;;;;;;;;;5045616;28;19932;-63
2023/09/21 15:44:48;;;;;;;;;;;;;;;;;;5046438;28;19960;-63
2023/09/21 15:47:14;;;;;;;;;;;;;;;;;;5048856;28;19925;-63
2023/09/21 15:49:40;;;;;;;;;;;;;;;;;;5048418;28;19921;-63
2023/09/21 15:52:07;;;;;;;;;;;;;;;;;;5047469;28;20408;-63
2023/09/21 15:54:33;;;;;;;;;;;;;;;;;;5049415;28;19929;-61
2023/09/21 15:56:59;;;;;;;;;;;;;;;;;;5041332;28;19925;-62
2023/09/21 15:59:24;;;;;;;;;;;;;;;;;;5046092;28;19977;-61
2023/09/21 16:01:50;;;;;;;;;;;;;;;;;;5042441;28;20009;-61
2023/09/21 16:04:17;;;;;;;;;;;;;;;;;;5044459;28;20058;-61
2023/09/21 16:06:43;;;;;;;;;;;;;;;;;;5030670;28;19933;-61
2023/09/21 16:09:09;;;;;;;;;;;;;;;;;;5041462;28;19967;-61
2023/09/21 16:11:35;;;;;;;;;;;;;;;;;;5046778;28;19925;-61
2023/09/21 16:14:01;;;;;;;;;;;;;;;;;;5039928;28;19925;-61
2023/09/21 16:16:27;;;;;;;;;;;;;;;;;;5045852;28;19928;-62
2023/09/21 16:18:54;;;;;;;;;;;;;;;;;;5040063;28;19925;-61
2023/09/21 16:21:20;;;;;;;;;;;;;;;;;;5047550;28;19960;-61
2023/09/21 16:23:46;;;;;;;;;;;;;;;;;;5039004;28;20419;-62
2023/09/21 16:26:12;;;;;;;;;;;;;;;;;;5047852;28;19925;-62
2023/09/21 16:28:38;;;;;;;;;;;;;;;;;;5047859;28;20405;-62
2023/09/21 16:31:04;;;;;;;;;;;;;;;;;;5047661;28;19932;-62
2023/09/21 16:33:30;;;;;;;;;;;;;;;;;;5046253;28;19928;-61
2023/09/21 16:36:00;;;;;;;;;;;;;;;;;;5049403;28;19944;-62
2023/09/21 16:38:26;;;;;;;;;;;;;;;;;;5052462;28;20453;-62
2023/09/21 16:40:52;;;;;;;;;;;;;;;;;;5051387;28;19921;-62